Time;durP1;ratioP1;P1;durP2;ratioP2;P2;SDS_P1;SDS_P2;PMS_P1;PMS_P2;Temp;Humidity;BMP_temperature;BMP_pressure;BME280_temperature;BME280_humidity;BME280_pressure;Samples;Min_cycle;Max_cycle;Signal;HPM_P1;HPM_P2
2021/06/04 00:00:42;;;;;;;15.35;11.75;;;;;;;17.40;75.61;101740.81;5049161;28;20258;-72
2021/06/04 00:03:17;;;;;;;14.27;12.43;;;;;;;17.43;75.95;101740.94;5033091;28;20032;-71
2021/06/04 00:05:53;;;;;;;14.18;11.32;;;;;;;17.43;76.57;101740.94;5015184;28;20025;-71
2021/06/04 00:08:19;;;;;;;17.33;13.07;;;;;;;17.38;76.48;101742.47;5032191;28;20032;-71
2021/06/04 00:10:51;;;;;;;15.02;11.43;;;;;;;17.38;76.90;101743.38;5050247;28;20112;-71
2021/06/04 00:13:25;;;;;;;16.42;11.70;;;;;;;17.38;76.58;101737.25;5040330;28;20029;-71
2021/06/04 00:16:00;;;;;;;13.25;11.40;;;;;;;17.38;75.71;101737.25;5051957;28;20021;-71
2021/06/04 00:18:26;;;;;;;14.05;12.10;;;;;;;17.41;76.49;101737.38;5052248;28;20021;-71
2021/06/04 00:20:52;;;;;;;15.63;11.00;;;;;;;17.36;76.41;101733.72;5040250;28;20042;-71
2021/06/04 00:23:17;;;;;;;14.68;12.00;;;;;;;17.36;75.55;101728.50;5031786;28;20046;-71
2021/06/04 00:25:43;;;;;;;15.35;12.18;;;;;;;17.36;76.68;101736.31;5042530;28;20544;-71
2021/06/04 00:28:09;;;;;;;17.42;11.93;;;;;;;17.37;75.62;101740.69;5050827;28;20032;-71
2021/06/04 00:30:34;;;;;;;16.05;11.63;;;;;;;17.33;75.80;101738.81;5033415;28;20037;-71
2021/06/04 00:33:00;;;;;;;15.80;12.27;;;;;;;17.32;75.63;101752.66;5033065;28;20087;-71
2021/06/04 00:35:26;;;;;;;16.17;11.85;;;;;;;17.11;75.72;101753.56;5040551;28;20075;-71
2021/06/04 00:37:52;;;;;;;12.95;11.35;;;;;;;17.15;76.09;101745.06;5030724;28;20096;-71
2021/06/04 00:40:25;;;;;;;12.38;10.70;;;;;;;16.99;76.02;101753.09;5033980;28;20478;-71
2021/06/04 00:42:50;;;;;;;18.55;11.15;;;;;;;17.10;75.93;101751.81;5041453;28;20079;-72
2021/06/04 00:45:22;;;;;;;14.23;11.48;;;;;;;17.14;76.34;101748.50;5048603;28;20424;-71
2021/06/04 00:47:48;;;;;;;13.35;10.93;;;;;;;17.18;75.78;101755.59;5052572;28;20021;-71
2021/06/04 00:50:19;;;;;;;13.48;10.57;;;;;;;17.18;75.72;101750.38;5047825;28;20029;-71
2021/06/04 00:52:45;;;;;;;18.95;10.93;;;;;;;17.19;76.21;101756.50;5051628;28;20021;-71
2021/06/04 00:55:16;;;;;;;15.85;10.45;;;;;;;17.16;76.35;101752.03;5044206;28;20465;-71
2021/06/04 00:57:42;;;;;;;18.95;11.02;;;;;;;17.15;75.69;101750.28;5032638;28;20079;-71
2021/06/04 01:00:11;;;;;;;14.95;11.15;;;;;;;17.12;75.93;101754.47;5038727;28;20471;-71
2021/06/04 01:02:37;;;;;;;15.70;10.52;;;;;;;17.11;75.98;101753.56;5031410;28;20029;-71
2021/06/04 01:05:05;;;;;;;12.02;10.75;;;;;;;17.09;76.38;101752.63;5031393;28;20083;-71
2021/06/04 01:07:46;;;;;;;18.58;10.75;;;;;;;17.05;76.13;101754.25;5032678;28;20048;-71
2021/06/04 01:10:36;;;;;;;13.60;11.23;;;;;;;17.04;75.60;101746.34;5046126;28;20394;-71
2021/06/04 01:13:09;;;;;;;15.38;11.52;;;;;;;17.00;75.28;101749.66;5042723;28;20025;-71
2021/06/04 01:15:43;;;;;;;13.98;10.68;;;;;;;16.93;75.82;101744.19;5032692;28;20068;-71
2021/06/04 01:18:27;;;;;;;15.98;11.20;;;;;;;16.98;75.75;101746.09;5032595;28;20033;-71
2021/06/04 01:20:56;;;;;;;17.20;11.57;;;;;;;16.88;75.99;101740.50;5051668;28;20475;-72
2021/06/04 01:23:33;;;;;;;13.27;10.32;;;;;;;16.90;75.66;101736.25;5032562;28;20072;-71
2021/06/04 01:26:06;;;;;;;14.00;10.80;;;;;;;16.91;75.65;101734.50;5031399;28;20025;-71
2021/06/04 01:28:35;;;;;;;14.13;11.32;;;;;;;16.90;75.94;101728.44;5049329;28;20033;-72
2021/06/04 01:31:06;;;;;;;12.85;10.43;;;;;;;16.93;75.67;101738.97;5031558;28;20022;-72
2021/06/04 01:33:40;;;;;;;16.35;10.50;;;;;;;16.90;75.52;101732.75;5031163;28;20108;-72
2021/06/04 01:36:06;;;;;;;15.60;11.00;;;;;;;16.77;76.22;101739.16;5031228;28;20018;-72
2021/06/04 01:38:36;;;;;;;16.27;11.70;;;;;;;16.72;76.19;101733.75;5031085;28;20059;-72
2021/06/04 01:41:04;;;;;;;15.60;10.98;;;;;;;16.71;76.61;101731.13;5044666;28;20026;-71
2021/06/04 01:43:40;;;;;;;15.30;11.35;;;;;;;16.67;76.50;101734.41;5038146;28;20025;-71
2021/06/04 01:46:24;;;;;;;16.27;11.88;;;;;;;16.62;76.42;101731.59;5051146;28;20437;-71
2021/06/04 01:48:51;;;;;;;13.45;10.60;;;;;;;16.49;76.95;101725.03;5042600;28;20030;-71
2021/06/04 01:51:22;;;;;;;13.82;11.05;;;;;;;16.61;76.56;101725.53;5027289;28;20025;-71
2021/06/04 01:53:56;;;;;;;16.48;11.80;;;;;;;15.83;80.14;101725.59;5043296;28;20028;-71
2021/06/04 01:56:28;;;;;;;13.98;10.60;;;;;;;16.02;79.16;101727.34;5043056;28;20379;-71
2021/06/04 01:59:00;;;;;;;16.42;11.45;;;;;;;16.29;77.86;101738.03;5036393;28;20037;-71
2021/06/04 02:01:33;;;;;;;13.20;10.13;;;;;;;16.43;77.40;101724.72;5052691;28;20035;-71
2021/06/04 02:03:58;;;;;;;15.43;10.70;;;;;;;16.58;76.55;101730.59;5044645;28;20507;-71
2021/06/04 02:06:27;;;;;;;13.02;11.20;;;;;;;16.65;77.02;101732.63;5034581;28;20535;-71
2021/06/04 02:08:56;;;;;;;14.05;10.90;;;;;;;16.71;76.85;101725.91;5034540;28;20474;-71
2021/06/04 02:11:26;;;;;;;18.05;11.23;;;;;;;16.77;76.70;101732.25;5034360;28;20025;-71
2021/06/04 02:13:52;;;;;;;14.45;11.38;;;;;;;16.73;76.32;101724.25;5042064;28;20078;-71
2021/06/04 02:16:41;;;;;;;14.60;12.57;;;;;;;16.59;76.89;101716.78;5049594;28;20029;-71
2021/06/04 02:19:22;;;;;;;14.88;10.82;;;;;;;16.15;78.14;101718.34;5034380;28;20021;-71
2021/06/04 02:21:56;;;;;;;14.40;10.98;;;;;;;16.44;76.98;101714.41;5035239;28;20037;-72
2021/06/04 02:24:38;;;;;;;14.38;11.25;;;;;;;16.49;76.59;101714.63;5034176;28;20030;-71
2021/06/04 02:27:09;;;;;;;17.70;11.15;;;;;;;16.28;77.45;101715.47;5034352;28;20029;-71
2021/06/04 02:29:57;;;;;;;13.27;11.18;;;;;;;16.34;77.17;101720.06;5036800;28;20036;-71
2021/06/04 02:32:27;;;;;;;13.52;10.52;;;;;;;16.48;76.78;101712.84;5051489;28;20043;-72
2021/06/04 02:35:15;;;;;;;16.45;10.77;;;;;;;16.50;76.51;101711.19;5047588;28;20022;-71
2021/06/04 02:37:45;;;;;;;14.18;10.80;;;;;;;16.55;76.50;101709.69;5020010;28;20040;-71
2021/06/04 02:40:26;;;;;;;16.65;10.88;;;;;;;16.57;76.31;101713.22;5044065;28;20418;-71
2021/06/04 02:43:32;;;;;;;15.20;10.63;;;;;;;16.55;76.29;101720.06;5048998;28;20020;-71
2021/06/04 02:46:19;;;;;;;13.30;10.35;;;;;;;16.55;76.08;101714.88;5036377;28;20044;-71
2021/06/04 02:48:47;;;;;;;14.20;9.73;;;;;;;16.56;76.10;101716.66;5036273;28;20025;-71
2021/06/04 02:51:33;;;;;;;13.15;9.73;;;;;;;16.50;76.25;101711.19;5044240;28;20132;-71
2021/06/04 02:54:06;;;;;;;24.42;11.95;;;;;;;16.09;78.00;101719.00;5043290;28;20056;-72
2021/06/04 02:56:36;;;;;;;12.85;9.20;;;;;;;16.26;76.93;101711.91;5041965;28;20505;-71
2021/06/04 02:59:07;;;;;;;12.07;9.43;;;;;;;16.03;77.90;101709.22;5044395;28;20057;-71
2021/06/04 03:01:35;;;;;;;15.43;10.23;;;;;;;16.20;77.44;101698.66;5041322;28;20041;-71
2021/06/04 03:04:02;;;;;;;14.30;9.32;;;;;;;16.14;77.31;101700.97;5042439;28;20108;-71
2021/06/04 03:06:33;;;;;;;9.98;8.85;;;;;;;16.20;76.73;101707.34;5041923;28;20025;-71
2021/06/04 03:09:00;;;;;;;13.38;9.88;;;;;;;15.63;79.05;101702.22;5058959;28;20049;-71
2021/06/04 03:11:30;;;;;;;12.88;8.80;;;;;;;15.58;79.17;101709.78;5042565;28;20032;-71
2021/06/04 03:13:56;;;;;;;16.20;10.07;;;;;;;15.76;78.35;101708.81;5042488;28;20029;-71
2021/06/04 03:16:23;;;;;;;12.63;9.88;;;;;;;15.46;79.55;101710.13;5036105;28;20109;-71
2021/06/04 03:18:52;;;;;;;12.07;8.88;;;;;;;15.67;78.61;101711.91;5033036;28;20034;-71
2021/06/04 03:21:23;;;;;;;10.50;8.68;;;;;;;15.74;77.94;101707.88;5033290;28;20017;-72
2021/06/04 03:23:49;;;;;;;12.23;8.80;;;;;;;15.77;77.96;101706.31;5032951;28;20037;-72
2021/06/04 03:26:20;;;;;;;12.82;9.18;;;;;;;15.78;77.73;101702.91;5033080;28;20026;-72
2021/06/04 03:28:48;;;;;;;11.65;8.55;;;;;;;15.64;78.36;101709.19;5033990;28;20438;-71
2021/06/04 03:31:15;;;;;;;13.07;8.75;;;;;;;15.43;79.41;101709.06;5032913;28;20029;-72
2021/06/04 03:33:41;;;;;;;12.13;8.45;;;;;;;15.53;78.85;101710.41;5033003;28;20109;-72
2021/06/04 03:36:14;;;;;;;10.25;7.95;;;;;;;15.80;77.56;101715.06;5052311;28;20044;-72
2021/06/04 03:38:41;;;;;;;8.65;7.70;;;;;;;15.83;77.28;101705.69;5053975;28;20056;-72
2021/06/04 03:41:06;;;;;;;13.73;8.90;;;;;;;15.71;77.52;101721.63;5037528;28;20029;-72
2021/06/04 03:43:32;;;;;;;12.10;8.57;;;;;;;15.51;78.80;101722.44;5017169;28;20031;-71
2021/06/04 03:45:58;;;;;;;13.15;8.32;;;;;;;15.48;78.80;101721.47;5044815;28;20124;-72
2021/06/04 03:48:28;;;;;;;13.50;7.97;;;;;;;15.81;77.59;101727.22;5032520;28;20025;-72
2021/06/04 03:50:56;;;;;;;10.82;7.68;;;;;;;16.00;76.66;101719.47;5019753;28;20482;-71
2021/06/04 03:53:23;;;;;;;10.75;8.48;;;;;;;16.09;76.32;101728.47;5035741;28;20116;-72
2021/06/04 03:55:49;;;;;;;11.57;8.05;;;;;;;15.63;77.57;101722.97;5037695;28;20064;-72
2021/06/04 03:58:16;;;;;;;12.65;7.30;;;;;;;15.98;76.55;101736.69;5033850;28;20756;-72
2021/06/04 04:00:48;;;;;;;10.23;7.60;;;;;;;16.08;75.72;101726.72;5036101;28;20518;-72
2021/06/04 04:03:15;;;;;;;10.45;8.05;;;;;;;16.19;75.46;101725.47;5052434;28;20123;-72
2021/06/04 04:05:42;;;;;;;14.75;7.78;;;;;;;16.20;75.25;101727.25;5042713;28;20033;-72
2021/06/04 04:08:09;;;;;;;10.80;7.03;;;;;;;16.17;75.31;101732.31;5032141;28;20052;-72
2021/06/04 04:10:35;;;;;;;13.93;7.43;;;;;;;16.08;75.77;101731.91;5033332;28;20037;-72
2021/06/04 04:13:01;;;;;;;11.00;7.32;;;;;;;16.31;74.87;101726.00;5051520;28;20359;-71
2021/06/04 04:15:27;;;;;;;12.30;7.50;;;;;;;16.41;74.73;101727.28;5045719;28;20013;-71
2021/06/04 04:17:55;;;;;;;12.57;7.53;;;;;;;16.47;74.88;101729.28;5046241;28;20382;-71
2021/06/04 04:20:25;;;;;;;8.63;7.53;;;;;;;16.51;74.54;101731.19;5051824;28;20541;-71
2021/06/04 04:22:52;;;;;;;11.25;7.57;;;;;;;16.55;74.41;101724.38;5042424;28;20052;-71
2021/06/04 04:25:18;;;;;;;10.05;7.40;;;;;;;16.56;74.09;101727.06;5039621;28;20041;-71
2021/06/04 04:27:44;;;;;;;9.85;7.38;;;;;;;16.58;74.13;101730.59;5051153;28;20056;-71
2021/06/04 04:30:11;;;;;;;10.13;7.93;;;;;;;16.55;73.87;101735.69;5052318;28;20044;-71
2021/06/04 04:32:40;;;;;;;8.77;7.50;;;;;;;16.50;73.93;101732.88;5034902;28;20051;-71
2021/06/04 04:35:13;;;;;;;9.57;7.50;;;;;;;16.50;73.72;101732.88;5031960;28;20116;-71
2021/06/04 04:37:38;;;;;;;12.15;7.80;;;;;;;16.13;75.82;101751.19;5039841;28;20028;-71
2021/06/04 04:40:06;;;;;;;9.35;7.88;;;;;;;16.35;74.66;101748.69;5051297;28;21798;-71
2021/06/04 04:42:32;;;;;;;12.60;8.13;;;;;;;16.40;74.58;101748.00;5036363;28;20037;-71
2021/06/04 04:44:58;;;;;;;11.48;8.25;;;;;;;16.41;74.99;101741.97;5033174;28;20017;-71
2021/06/04 04:47:24;;;;;;;9.80;7.93;;;;;;;16.27;74.60;101744.88;5042340;28;20029;-71
2021/06/04 04:49:51;;;;;;;11.43;8.93;;;;;;;15.83;76.58;101746.38;5032749;28;20033;-72
2021/06/04 04:52:16;;;;;;;11.18;8.95;;;;;;;15.81;77.39;101733.28;5031209;28;20034;-72
2021/06/04 04:54:46;;;;;;;13.68;8.77;;;;;;;16.25;75.26;101735.25;5034478;28;20052;-72
2021/06/04 04:57:12;;;;;;;;;;;;;;;16.32;74.91;101732.97;5038569;28;20044;-71
2021/06/04 04:59:38;;;;;;;12.02;7.95;;;;;;;16.50;74.80;101727.66;5025842;28;20362;-72
2021/06/04 05:02:04;;;;;;;11.75;8.73;;;;;;;16.65;74.21;101732.63;5048439;28;20029;-71
2021/06/04 05:04:29;;;;;;;12.05;7.93;;;;;;;16.27;75.12;101734.47;5050872;28;20033;-71
2021/06/04 05:06:55;;;;;;;12.25;9.57;;;;;;;16.59;74.37;101732.38;5052549;28;20029;-71
2021/06/04 05:09:21;;;;;;;10.90;7.97;;;;;;;16.73;73.98;101729.47;5043199;28;20021;-72
2021/06/04 05:11:48;;;;;;;10.82;8.00;;;;;;;16.94;72.69;101727.72;5043941;28;20398;-74
2021/06/04 05:14:15;;;;;;;10.55;8.82;;;;;;;16.38;74.16;101734.06;5044255;28;20031;-72
2021/06/04 05:16:41;;;;;;;13.43;8.27;;;;;;;16.34;74.14;101731.31;5038571;28;20036;-72
2021/06/04 05:19:08;;;;;;;12.32;8.55;;;;;;;16.68;73.91;101731.00;5024069;28;20029;-71
2021/06/04 05:21:34;;;;;;;17.30;8.00;;;;;;;16.62;73.50;101737.72;5032751;28;20513;-73
2021/06/04 05:24:00;;;;;;;11.48;8.30;;;;;;;16.44;75.03;101731.75;5040965;28;20032;-73
2021/06/04 05:26:26;;;;;;;10.10;7.57;;;;;;;16.44;74.31;101734.34;5045340;28;20025;-73
2021/06/04 05:28:52;;;;;;;13.80;7.97;;;;;;;16.77;73.82;101736.56;5048444;28;20060;-73
2021/06/04 05:31:18;;;;;;;16.08;7.40;;;;;;;16.99;72.92;101732.28;5045916;28;20096;-72
2021/06/04 05:33:46;;;;;;;10.98;7.60;;;;;;;16.96;73.16;101738.19;5049103;28;20122;-72
2021/06/04 05:36:17;;;;;;;10.38;7.30;;;;;;;16.98;72.56;101740.91;5036303;28;20467;-72
2021/06/04 05:38:44;;;;;;;11.00;8.00;;;;;;;16.94;72.75;101740.75;5028070;28;20362;-72
2021/06/04 05:41:12;;;;;;;9.27;7.63;;;;;;;16.90;73.53;101738.84;5041021;28;20156;-72
2021/06/04 05:43:40;;;;;;;13.57;9.32;;;;;;;17.06;73.10;101739.50;5042923;28;20055;-72
2021/06/04 05:46:07;;;;;;;11.68;7.95;;;;;;;17.09;72.79;101739.63;5044039;28;20025;-71
2021/06/04 05:48:33;;;;;;;12.20;7.45;;;;;;;16.87;72.08;101738.72;5043463;28;20529;-71
2021/06/04 05:51:03;;;;;;;12.32;8.80;;;;;;;17.05;71.45;101742.94;5043459;28;20501;-72
2021/06/04 05:53:31;;;;;;;8.90;7.70;;;;;;;16.99;73.31;101740.97;5049650;28;20135;-71
2021/06/04 05:55:57;;;;;;;12.95;7.68;;;;;;;17.35;72.27;101748.47;5025994;28;20077;-74
2021/06/04 05:58:23;;;;;;;11.88;8.60;;;;;;;17.02;72.70;101748.00;5037099;28;20048;-74
2021/06/04 06:00:51;;;;;;;11.88;7.90;;;;;;;17.11;71.78;101743.16;5068203;28;20028;-73
2021/06/04 06:03:20;;;;;;;10.13;7.40;;;;;;;17.14;71.55;101752.81;5073457;28;20028;-72
2021/06/04 06:05:46;;;;;;;8.27;7.00;;;;;;;17.63;70.69;101748.66;5068439;28;20104;-75
2021/06/04 06:08:12;;;;;;;11.82;8.40;;;;;;;17.49;69.92;101750.72;5054236;28;20063;-78
2021/06/04 06:10:38;;;;;;;9.48;7.50;;;;;;;17.57;70.00;101748.41;5055426;28;20116;-79
2021/06/04 06:13:05;;;;;;;9.63;6.95;;;;;;;17.79;69.50;101761.41;5037736;28;20029;-80
2021/06/04 06:15:31;;;;;;;9.07;7.43;;;;;;;18.04;68.41;101764.94;5054448;28;20021;-78
2021/06/04 06:17:57;;;;;;;9.82;6.85;;;;;;;18.02;69.17;101758.78;5055200;28;20021;-75
2021/06/04 06:20:26;;;;;;;10.40;7.50;;;;;;;17.90;67.74;101763.53;5055501;28;20040;-76
2021/06/04 06:22:52;;;;;;;9.18;7.25;;;;;;;17.95;68.51;101767.19;5055345;28;20045;-75
2021/06/04 06:25:41;;;;;;;11.52;7.72;;;;;;;17.99;70.11;101763.88;5054447;28;20075;-77
2021/06/04 06:28:09;;;;;;;10.75;7.45;;;;;;;18.15;69.32;101769.66;5053270;28;20060;-75
2021/06/04 06:30:35;;;;;;;12.32;7.50;;;;;;;18.20;68.50;101762.91;5053918;28;20021;-76
2021/06/04 06:33:02;;;;;;;15.13;7.35;;;;;;;18.42;68.33;101758.44;5055259;28;20029;-76
2021/06/04 06:35:36;;;;;;;12.25;7.22;;;;;;;18.38;67.41;101762.66;5053824;28;20021;-74
2021/06/04 06:38:02;;;;;;;10.50;7.40;;;;;;;18.40;68.48;101771.44;5053137;28;20462;-75
2021/06/04 06:40:28;;;;;;;9.70;6.70;;;;;;;18.54;67.28;101774.50;5054035;28;20336;-75
2021/06/04 06:42:54;;;;;;;10.55;7.43;;;;;;;18.58;66.94;101771.19;5055403;28;20021;-75
2021/06/04 06:45:23;;;;;;;13.90;7.13;;;;;;;18.69;67.71;101772.44;5053693;28;20025;-75
2021/06/04 06:47:51;;;;;;;8.55;6.75;;;;;;;18.81;66.19;101768.47;5037277;28;20120;-75
2021/06/04 06:50:17;;;;;;;9.63;7.32;;;;;;;18.80;67.79;101771.91;5053890;28;20423;-75
2021/06/04 06:52:43;;;;;;;10.18;7.43;;;;;;;18.91;65.36;101773.16;5054875;28;20112;-75
2021/06/04 06:55:10;;;;;;;10.13;7.00;;;;;;;18.96;65.79;101763.75;5053633;28;20382;-75
2021/06/04 06:57:36;;;;;;;12.55;6.88;;;;;;;19.17;64.23;101767.91;5036692;28;20467;-75
2021/06/04 07:00:05;;;;;;;8.98;6.65;;;;;;;19.03;64.28;101771.81;5054478;28;20072;-75
2021/06/04 07:02:31;;;;;;;9.18;7.03;;;;;;;19.25;63.99;101771.66;5053721;28;20029;-75
2021/06/04 07:04:56;;;;;;;12.65;7.80;;;;;;;19.27;63.52;101767.34;5054625;28;20363;-75
2021/06/04 07:07:22;;;;;;;8.45;6.72;;;;;;;18.96;63.64;101763.75;5053379;28;20036;-75
2021/06/04 07:09:47;;;;;;;8.95;7.43;;;;;;;18.86;64.33;101772.13;5054539;28;20028;-75
2021/06/04 07:12:13;;;;;;;12.65;7.60;;;;;;;18.96;64.12;101774.19;5054806;28;20060;-76
2021/06/04 07:14:39;;;;;;;11.20;7.80;;;;;;;18.87;64.69;101771.28;5036540;28;20028;-76
2021/06/04 07:17:05;;;;;;;9.63;6.47;;;;;;;19.36;63.54;101773.69;5053157;28;20382;-75
2021/06/04 07:19:33;;;;;;;10.57;7.18;;;;;;;19.33;62.69;101774.50;5054085;28;20035;-75
2021/06/04 07:21:59;;;;;;;9.73;7.75;;;;;;;19.61;63.19;101784.91;5036482;28;20020;-75
2021/06/04 07:27:48;;;;;;;9.20;6.88;;;;;;;19.94;62.14;101778.94;5046414;28;20047;-74
2021/06/04 07:30:20;;;;;;;9.95;7.18;;;;;;;19.92;59.60;101775.41;5034985;28;20098;-75
2021/06/04 07:32:46;;;;;;;13.35;7.18;;;;;;;20.32;61.19;101776.50;5051913;28;20029;-75
2021/06/04 07:35:24;;;;;;;10.77;7.00;;;;;;;20.79;59.02;101772.50;5030692;28;20478;-75
2021/06/04 07:37:51;;;;;;;9.93;7.28;;;;;;;20.43;58.56;101780.28;5033346;28;20032;-75
2021/06/04 07:40:22;;;;;;;10.40;6.65;;;;;;;20.43;60.61;101775.06;5048763;28;20024;-74
2021/06/04 07:42:48;;;;;;;12.68;7.00;;;;;;;20.60;59.23;101764.13;5050752;28;20532;-75
2021/06/04 07:45:14;;;;;;;9.00;5.97;;;;;;;20.67;59.67;101768.69;5051510;28;20029;-75
2021/06/04 07:47:40;;;;;;;9.75;6.15;;;;;;;21.20;58.89;101764.75;5051213;28;20036;-72
2021/06/04 07:50:09;;;;;;;9.45;6.10;;;;;;;21.09;57.54;101761.00;5051326;28;20029;-72
2021/06/04 07:52:35;;;;;;;9.10;6.93;;;;;;;21.24;59.68;101760.47;5048017;28;20395;-72
2021/06/04 07:55:01;;;;;;;8.90;7.32;;;;;;;21.06;58.30;101760.94;5048405;28;20029;-72
2021/06/04 07:57:27;;;;;;;13.13;7.15;;;;;;;21.71;57.78;101758.03;5052646;28;20025;-72
2021/06/04 07:59:53;;;;;;;8.93;6.93;;;;;;;21.50;57.42;101753.19;5034726;28;20466;-72
2021/06/04 08:02:19;;;;;;;18.48;6.63;;;;;;;22.04;55.74;101763.94;5051042;28;20054;-72
2021/06/04 08:04:45;;;;;;;11.18;7.22;;;;;;;22.02;56.49;101769.13;5043060;28;20146;-73
2021/06/04 08:07:10;;;;;;;7.07;6.13;;;;;;;21.68;55.81;101767.56;5052439;28;20548;-72
2021/06/04 08:09:37;;;;;;;7.22;5.88;;;;;;;22.37;53.66;101770.66;5050886;28;20025;-72
2021/06/04 08:12:04;;;;;;;8.48;6.70;;;;;;;22.38;52.85;101767.19;5041932;28;20103;-72
2021/06/04 08:14:30;;;;;;;9.13;6.20;;;;;;;22.55;54.04;101769.25;5040742;28;20009;-72
2021/06/04 08:16:58;;;;;;;12.10;6.97;;;;;;;22.49;52.77;101769.16;5039861;28;20028;-72
2021/06/04 08:19:25;;;;;;;7.18;6.30;;;;;;;22.80;52.36;101765.31;5041617;28;20104;-72
2021/06/04 08:21:53;;;;;;;7.60;6.38;;;;;;;22.79;51.81;101767.91;5040489;28;20100;-72
2021/06/04 08:24:25;;;;;;;10.88;6.97;;;;;;;22.73;51.90;101766.94;5039404;28;20049;-72
2021/06/04 08:26:51;;;;;;;7.03;5.25;;;;;;;22.77;51.18;101771.38;5040426;28;20478;-72
2021/06/04 08:29:17;;;;;;;7.90;5.88;;;;;;;23.05;51.20;101769.22;5041078;28;20103;-72
2021/06/04 08:31:44;;;;;;;11.52;6.35;;;;;;;23.50;48.47;101782.16;5039491;28;20071;-72
2021/06/04 08:34:11;;;;;;;6.70;5.97;;;;;;;23.66;47.95;101774.47;5041727;28;20486;-72
2021/06/04 08:36:39;;;;;;;9.75;5.90;;;;;;;24.13;45.99;101770.66;5041359;28;20525;-73
2021/06/04 08:39:18;;;;;;;11.40;6.75;;;;;;;24.43;48.15;101763.97;5038398;28;20766;-72
2021/06/04 08:42:05;;;;;;;7.72;5.72;;;;;;;24.62;45.64;101765.00;5039258;28;20541;-73
2021/06/04 08:45:03;;;;;;;8.30;5.72;;;;;;;23.95;47.17;101760.81;5040289;28;20034;-72
2021/06/04 08:47:34;;;;;;;7.50;5.47;;;;;;;24.76;47.99;101758.13;5041372;28;20029;-72
2021/06/04 08:50:27;;;;;;;8.52;6.53;;;;;;;23.80;47.51;101762.34;5039309;28;20024;-71
2021/06/04 08:53:17;;;;;;;7.28;6.05;;;;;;;24.91;46.17;101757.38;5041849;28;20116;-72
2021/06/04 08:55:45;;;;;;;8.82;6.13;;;;;;;25.31;45.81;101746.19;5048756;28;20096;-71
2021/06/04 08:58:10;;;;;;;10.50;5.93;;;;;;;25.50;43.32;101751.59;5051795;28;20028;-72
2021/06/04 09:00:39;;;;;;;6.47;4.30;;;;;;;25.18;42.79;101754.91;5050694;28;20091;-72
2021/06/04 09:03:19;;;;;;;7.10;5.70;;;;;;;25.87;43.13;101751.72;5042488;28;20061;-73
2021/06/04 09:05:49;;;;;;;18.55;5.95;;;;;;;25.94;42.91;101756.13;5041340;28;20028;-73
2021/06/04 09:08:18;;;;;;;7.57;5.28;;;;;;;26.22;40.84;101748.34;5022312;28;20121;-73
2021/06/04 09:10:49;;;;;;;7.32;4.90;;;;;;;26.48;42.53;101744.81;5040138;28;20470;-73
2021/06/04 09:13:23;;;;;;;6.97;5.43;;;;;;;26.36;40.18;101740.41;5041124;28;20152;-72
2021/06/04 09:15:49;;;;;;;6.00;5.20;;;;;;;26.58;41.37;101739.53;5023979;28;20017;-72
2021/06/04 09:18:18;;;;;;;6.90;4.95;;;;;;;26.71;41.00;101736.00;5039309;28;20453;-72
2021/06/04 09:20:58;;;;;;;8.75;5.07;;;;;;;26.97;40.54;101736.00;5042208;28;20031;-72
2021/06/04 09:23:28;;;;;;;8.60;5.40;;;;;;;27.18;40.16;101735.97;5036091;28;20077;-72
2021/06/04 09:25:55;;;;;;;6.63;4.88;;;;;;;28.00;39.98;101741.78;5050168;28;20029;-72
2021/06/04 09:28:47;;;;;;;7.70;5.25;;;;;;;30.12;34.09;101734.34;5044045;28;20014;-72
2021/06/04 09:31:34;;;;;;;6.38;5.10;;;;;;;33.10;28.72;101736.06;5019680;28;20076;-72
2021/06/04 09:34:26;;;;;;;6.90;5.20;;;;;;;32.77;28.81;101733.38;5039013;28;20036;-72
2021/06/04 09:37:26;;;;;;;6.75;4.65;;;;;;;34.15;27.34;101736.50;5037077;28;20063;-72
2021/06/04 09:39:54;;;;;;;6.80;4.50;;;;;;;35.43;25.65;101733.78;5032837;28;20076;-72
2021/06/04 09:42:28;;;;;;;6.93;4.28;;;;;;;35.64;24.60;101741.97;5041638;28;20049;-73
2021/06/04 09:45:00;;;;;;;7.13;5.00;;;;;;;36.19;24.64;101738.00;5041096;28;20025;-72
2021/06/04 09:47:46;;;;;;;6.25;5.30;;;;;;;35.12;23.81;101732.28;5024853;28;20071;-72
2021/06/04 09:50:39;;;;;;;5.68;4.47;;;;;;;35.85;24.28;101740.22;5038012;28;20029;-72
2021/06/04 09:53:16;;;;;;;9.13;4.88;;;;;;;35.88;24.81;101733.88;5041455;28;20014;-72
2021/06/04 09:55:44;;;;;;;7.93;4.82;;;;;;;35.25;24.59;101736.25;5041593;28;20037;-72
2021/06/04 09:58:13;;;;;;;7.95;5.05;;;;;;;33.56;26.84;101733.00;5040669;28;20029;-72
2021/06/04 10:00:57;;;;;;;6.50;5.13;;;;;;;32.70;27.90;101721.97;5041851;28;20025;-72
2021/06/04 10:03:36;;;;;;;7.82;4.63;;;;;;;31.19;29.89;101728.09;5042128;28;20470;-72
2021/06/04 10:06:05;;;;;;;6.10;4.75;;;;;;;30.16;31.34;101720.13;5038053;28;20017;-73
2021/06/04 10:08:31;;;;;;;6.43;3.90;;;;;;;32.54;30.71;101732.19;5041145;28;20043;-72
2021/06/04 10:11:13;;;;;;;9.88;4.65;;;;;;;34.44;27.36;101721.25;5039957;28;20100;-72
2021/06/04 10:14:06;;;;;;;6.38;4.80;;;;;;;36.19;25.39;101732.63;5043671;28;20028;-73
2021/06/04 10:17:26;;;;;;;7.15;4.05;;;;;;;37.25;22.10;101731.66;5043987;28;20532;-72
2021/06/04 10:19:30;;;;;;;8.95;4.38;;;;;;;35.74;22.45;101724.59;5042741;28;20055;-73
2021/06/04 10:22:32;;;;;;;6.37;4.87;;;;;;;37.11;22.46;101716.16;5043067;28;20025;-72
2021/06/04 10:25:01;;;;;;;10.20;5.07;;;;;;;35.19;22.91;101725.78;5043345;28;20098;-72
2021/06/04 10:27:27;;;;;;;5.82;4.10;;;;;;;37.90;21.25;101725.00;5044237;28;20117;-72
2021/06/04 10:30:25;;;;;;;7.38;4.70;;;;;;;38.03;20.50;101728.84;5053880;28;20458;-76
2021/06/04 10:33:00;;;;;;;6.93;4.93;;;;;;;38.11;20.59;101723.06;5045635;28;20051;-78
2021/06/04 10:35:43;;;;;;;5.50;4.68;;;;;;;38.49;20.67;101724.75;5045351;28;20263;-76
2021/06/04 10:38:20;;;;;;;5.43;3.67;;;;;;;37.50;20.11;101711.69;5042353;28;20100;-76
2021/06/04 10:40:56;;;;;;;5.00;3.42;;;;;;;38.62;20.51;101717.78;5043504;28;20104;-78
2021/06/04 10:43:43;;;;;;;6.63;3.78;;;;;;;38.99;18.36;101721.22;5041556;28;20018;-76
2021/06/04 10:46:16;;;;;;;5.50;3.63;;;;;;;38.48;19.20;101710.47;5028313;28;20036;-78
2021/06/04 10:48:52;;;;;;;4.90;3.40;;;;;;;38.64;18.64;101721.25;5042467;28;20031;-77
2021/06/04 10:51:59;;;;;;;4.93;3.88;;;;;;;38.41;19.56;101714.38;5022632;28;20024;-78
2021/06/04 10:54:47;;;;;;;8.88;4.30;;;;;;;37.52;21.69;101716.03;5034134;28;20037;-79
2021/06/04 10:57:21;;;;;;;6.43;4.82;;;;;;;35.08;25.84;101709.25;5041183;28;20025;-79
2021/06/04 10:59:58;;;;;;;6.65;4.22;;;;;;;35.68;25.78;101714.13;5039855;28;20025;-79
2021/06/04 11:02:31;;;;;;;6.50;4.82;;;;;;;35.59;25.86;101711.81;5038531;28;20021;-75
2021/06/04 11:05:33;;;;;;;8.38;4.13;;;;;;;35.17;24.93;101706.22;5042142;28;20060;-78
2021/06/04 11:08:10;;;;;;;8.50;4.68;;;;;;;33.92;29.22;101709.56;5033533;28;20418;-77
2021/06/04 11:11:11;;;;;;;7.45;4.93;;;;;;;32.41;30.77;101706.78;5023822;28;20025;-75
2021/06/04 11:14:01;;;;;;;7.43;5.55;;;;;;;32.22;31.33;101701.00;5033599;28;20037;-77
2021/06/04 11:16:40;;;;;;;6.18;5.18;;;;;;;31.63;31.79;101711.22;5029518;28;20051;-74
2021/06/04 11:19:11;;;;;;;6.53;5.28;;;;;;;31.43;32.64;101709.00;5040442;28;20051;-77
2021/06/04 11:21:52;;;;;;;7.78;5.20;;;;;;;31.15;32.35;101699.75;5039622;28;20483;-78
2021/06/04 11:24:33;;;;;;;5.67;4.73;;;;;;;31.02;32.30;101698.25;5042664;28;20038;-77
2021/06/04 11:26:59;;;;;;;12.55;7.32;;;;;;;31.10;34.66;101704.31;5041635;28;20033;-83
2021/06/04 11:29:28;;;;;;;6.45;4.75;;;;;;;30.96;32.81;101703.72;5026047;28;20030;-80
2021/06/04 11:32:03;;;;;;;7.78;5.82;;;;;;;30.07;35.24;101701.69;5040765;28;20492;-76
2021/06/04 11:34:43;;;;;;;10.45;5.15;;;;;;;30.73;35.33;101699.72;5043389;28;20036;-75
2021/06/04 11:37:38;;;;;;;15.00;8.90;;;;;;;31.09;34.71;101699.88;5039499;28;20021;-82
2021/06/04 11:40:14;;;;;;;6.32;4.53;;;;;;;31.22;34.34;101699.66;5042098;28;20332;-76
2021/06/04 11:43:06;;;;;;;8.40;4.55;;;;;;;31.13;34.49;101696.25;5042417;28;20060;-77